Time;durP1;ratioP1;P1;durP2;ratioP2;P2;SDS_P1;SDS_P2;PMS_P1;PMS_P2;Temp;Humidity;BMP_temperature;BMP_pressure;BME280_temperature;BME280_humidity;BME280_pressure;Samples;Min_cycle;Max_cycle;Signal;HPM_P1;HPM_P2
2023/01/27 00:00:56;;;;;;;10.63;3.47;;;4.20;99.90;;;;;;5084889;28;20457;-40
2023/01/27 00:03:22;;;;;;;8.63;3.10;;;4.20;99.90;;;;;;5083949;28;20509;-39
2023/01/27 00:05:48;;;;;;;11.35;3.35;;;4.20;99.90;;;;;;5085747;28;20118;-43
2023/01/27 00:08:14;;;;;;;10.05;2.88;;;4.20;99.90;;;;;;5088396;28;20059;-39
2023/01/27 00:10:40;;;;;;;12.45;3.70;;;4.20;99.90;;;;;;5092291;28;20040;-41
2023/01/27 00:15:50;;;;;;;6.55;3.22;;;4.20;99.90;;;;;;5083176;28;20048;-40
2023/01/27 00:18:16;;;;;;;11.85;3.38;;;4.20;99.90;;;;;;5082822;28;20130;-43
2023/01/27 00:26:13;;;;;;;15.45;3.85;;;4.20;99.90;;;;;;5085292;28;20040;-43
2023/01/27 00:28:40;;;;;;;11.73;3.85;;;4.20;99.90;;;;;;5057486;28;20063;-41
2023/01/27 00:33:54;;;;;;;12.48;4.60;;;4.20;99.90;;;;;;5087937;28;20036;-41
2023/01/27 00:36:22;;;;;;;9.63;3.90;;;4.10;99.90;;;;;;5083919;28;20055;-41
2023/01/27 00:38:48;;;;;;;8.10;3.80;;;4.10;99.90;;;;;;5086605;28;20040;-38
2023/01/27 00:41:19;;;;;;;11.20;4.35;;;4.10;99.90;;;;;;5090478;28;20511;-45
2023/01/27 00:43:46;;;;;;;9.48;3.40;;;4.10;99.90;;;;;;5087778;28;20105;-40
2023/01/27 00:46:12;;;;;;;13.15;5.03;;;4.10;99.90;;;;;;5082951;28;20485;-42
2023/01/27 00:48:38;;;;;;;14.98;5.40;;;4.10;99.90;;;;;;5084584;28;20039;-53
2023/01/27 00:51:04;;;;;;;12.68;5.32;;;4.10;99.90;;;;;;5084929;28;20036;-43
2023/01/27 00:53:30;;;;;;;9.00;4.13;;;4.10;99.90;;;;;;5084306;28;20093;-41
2023/01/27 00:55:57;;;;;;;9.73;4.38;;;4.10;99.90;;;;;;5088557;28;20067;-42
2023/01/27 00:58:26;;;;;;;13.15;4.70;;;4.10;99.90;;;;;;5086050;28;20040;-41
2023/01/27 01:00:54;;;;;;;15.00;5.00;;;4.10;99.90;;;;;;5082258;28;20155;-49
2023/01/27 01:03:20;;;;;;;8.88;4.63;;;4.00;99.90;;;;;;5083483;28;20024;-40
2023/01/27 01:05:46;;;;;;;10.63;5.25;;;4.00;99.90;;;;;;5084227;28;20081;-40
2023/01/27 01:08:12;;;;;;;13.02;5.53;;;4.00;99.90;;;;;;5085988;28;20454;-39
2023/01/27 01:10:38;;;;;;;11.05;5.18;;;4.00;99.90;;;;;;5087662;28;20078;-42
2023/01/27 01:13:06;;;;;;;10.77;4.72;;;4.00;99.90;;;;;;5088515;28;20044;-42
2023/01/27 01:15:35;;;;;;;10.82;4.93;;;4.10;99.90;;;;;;5077474;28;20056;-41
2023/01/27 01:18:02;;;;;;;11.52;4.80;;;4.00;99.90;;;;;;5090125;28;20489;-42
2023/01/27 01:20:28;;;;;;;11.27;4.85;;;4.00;99.90;;;;;;5087502;28;20084;-42
2023/01/27 01:22:54;;;;;;;9.43;4.70;;;4.00;99.90;;;;;;5086368;28;20035;-38
2023/01/27 01:25:19;;;;;;;11.73;4.90;;;4.00;99.90;;;;;;5083439;28;20048;-41
2023/01/27 01:27:45;;;;;;;9.63;4.32;;;4.00;99.90;;;;;;5086381;28;20055;-42
2023/01/27 01:30:11;;;;;;;10.90;4.25;;;4.00;99.90;;;;;;5084918;28;20084;-41
2023/01/27 01:32:37;;;;;;;8.45;4.47;;;4.00;99.90;;;;;;5078171;28;20520;-41
2023/01/27 01:35:03;;;;;;;9.38;4.82;;;4.00;99.90;;;;;;5080956;28;20040;-39
2023/01/27 01:37:29;;;;;;;9.05;4.50;;;4.00;99.90;;;;;;5083311;28;20373;-39
2023/01/27 01:39:54;;;;;;;9.18;4.30;;;4.00;99.90;;;;;;5086646;28;20036;-45
2023/01/27 01:42:20;;;;;;;11.73;4.18;;;4.00;99.90;;;;;;5087311;28;20048;-39
2023/01/27 01:44:46;;;;;;;7.60;3.85;;;4.00;99.90;;;;;;5082186;28;20040;-38
2023/01/27 01:47:16;;;;;;;8.05;4.13;;;4.00;99.90;;;;;;5069334;28;20135;-46
2023/01/27 01:49:45;;;;;;;7.18;3.53;;;4.00;99.90;;;;;;5079946;28;20115;-43
2023/01/27 01:52:19;;;;;;;7.18;3.30;;;4.00;99.90;;;;;;5085467;28;20673;-39
2023/01/27 01:54:54;;;;;;;7.22;3.22;;;4.00;99.90;;;;;;5086221;28;20072;-42
2023/01/27 01:57:29;;;;;;;7.25;3.20;;;4.00;99.90;;;;;;5086059;28;20069;-42
2023/01/27 02:00:08;;;;;;;6.97;3.22;;;4.00;99.90;;;;;;5079364;28;20355;-42
2023/01/27 02:02:35;;;;;;;6.25;3.13;;;4.00;99.90;;;;;;5084145;28;20032;-42
2023/01/27 02:05:12;;;;;;;5.95;3.08;;;4.00;99.90;;;;;;5079260;28;20456;-42
2023/01/27 02:07:52;;;;;;;7.93;2.90;;;4.00;99.90;;;;;;5079898;28;20036;-41
2023/01/27 02:10:18;;;;;;;7.25;2.60;;;4.00;99.90;;;;;;5083158;28;20050;-42
2023/01/27 02:12:43;;;;;;;5.45;2.78;;;4.00;99.90;;;;;;5087084;28;20035;-40
2023/01/27 02:15:10;;;;;;;6.10;2.78;;;4.00;99.90;;;;;;5079784;28;20043;-40
2023/01/27 02:17:36;;;;;;;3.92;1.88;;;4.00;99.90;;;;;;5081964;28;20063;-41
2023/01/27 02:20:05;;;;;;;4.45;2.30;;;4.00;99.90;;;;;;5078499;28;20115;-42
2023/01/27 02:22:54;;;;;;;4.82;2.00;;;4.10;99.90;;;;;;5074917;28;20075;-39
2023/01/27 02:25:33;;;;;;;5.15;2.13;;;4.10;99.90;;;;;;5078512;28;20040;-41
2023/01/27 02:27:59;;;;;;;5.95;2.30;;;4.10;99.90;;;;;;5078620;28;20532;-41
2023/01/27 02:30:25;;;;;;;6.68;2.20;;;4.10;99.90;;;;;;5085250;28;20032;-42
2023/01/27 02:32:51;;;;;;;4.03;1.98;;;4.10;99.90;;;;;;5082671;28;20028;-41
2023/01/27 02:35:28;;;;;;;6.55;2.53;;;4.10;99.90;;;;;;5079351;28;20132;-43
2023/01/27 02:37:56;;;;;;;4.70;1.67;;;4.10;99.90;;;;;;5075595;28;20039;-42
2023/01/27 02:40:23;;;;;;;6.90;2.53;;;4.10;99.90;;;;;;5077741;28;20040;-42
2023/01/27 02:42:49;;;;;;;5.03;2.40;;;4.10;99.90;;;;;;5079214;28;20527;-42
2023/01/27 02:45:15;;;;;;;6.15;2.80;;;4.10;99.90;;;;;;5081954;28;20071;-43
2023/01/27 02:47:40;;;;;;;6.15;2.55;;;4.10;99.90;;;;;;5081000;28;20047;-42
2023/01/27 02:50:07;;;;;;;5.25;2.50;;;4.10;99.90;;;;;;5083086;28;20072;-46
2023/01/27 02:52:32;;;;;;;6.00;3.08;;;4.10;99.90;;;;;;5084158;28;20071;-44
2023/01/27 02:54:58;;;;;;;5.38;2.90;;;4.10;99.90;;;;;;5056711;28;20062;-42
2023/01/27 02:57:24;;;;;;;4.55;2.42;;;4.10;99.90;;;;;;5070786;28;20036;-42
2023/01/27 02:59:50;;;;;;;8.02;2.67;;;4.10;99.90;;;;;;5077005;28;20113;-40
2023/01/27 03:02:21;;;;;;;6.75;2.95;;;4.10;99.90;;;;;;5085512;28;20036;-42
2023/01/27 03:04:48;;;;;;;8.43;2.95;;;4.10;99.90;;;;;;5082398;28;20457;-39
2023/01/27 03:07:13;;;;;;;7.30;2.58;;;4.10;99.90;;;;;;5082430;28;20767;-40
2023/01/27 03:09:39;;;;;;;4.82;2.33;;;4.10;99.90;;;;;;5082217;28;20036;-42
2023/01/27 03:12:20;;;;;;;7.22;2.33;;;4.10;99.90;;;;;;5081953;28;20106;-39
2023/01/27 03:20:19;;;;;;;4.13;2.30;;;4.10;99.90;;;;;;5083451;28;20105;-41
2023/01/27 03:22:45;;;;;;;4.88;2.00;;;4.10;99.90;;;;;;5088518;28;20532;-43
2023/01/27 03:25:11;;;;;;;5.10;1.83;;;4.10;99.90;;;;;;5082612;28;20500;-42
2023/01/27 03:27:36;;;;;;;5.32;1.45;;;4.10;99.90;;;;;;5086769;28;20060;-41
2023/01/27 03:30:03;;;;;;;4.25;1.58;;;4.10;99.90;;;;;;5077878;28;20052;-41
2023/01/27 03:32:30;;;;;;;3.22;1.60;;;4.10;99.90;;;;;;5088301;28;20516;-42
2023/01/27 03:34:56;;;;;;;5.03;1.92;;;4.10;99.90;;;;;;5079833;28;20043;-46
2023/01/27 03:48:33;;;;;;;2.60;1.00;;;4.10;99.90;;;;;;5083932;28;20071;-40
2023/01/27 03:51:00;;;;;;;4.03;1.40;;;4.10;99.90;;;;;;5083094;28;20043;-41
2023/01/27 03:53:26;;;;;;;2.45;1.08;;;4.20;99.90;;;;;;5088228;28;20051;-42
2023/01/27 03:55:52;;;;;;;2.70;1.10;;;4.20;99.90;;;;;;5078537;28;20032;-41
2023/01/27 03:58:31;;;;;;;1.63;1.00;;;4.20;99.90;;;;;;5083558;28;20028;-41
2023/01/27 04:01:18;;;;;;;3.22;0.90;;;4.20;99.90;;;;;;5085447;28;20036;-42
2023/01/27 04:09:35;;;;;;;2.38;0.80;;;4.20;99.90;;;;;;5081270;28;20047;-45
2023/01/27 04:12:04;;;;;;;1.95;1.00;;;4.30;99.90;;;;;;5080929;28;20052;-44
2023/01/27 04:14:40;;;;;;;1.88;0.70;;;4.30;99.90;;;;;;5080471;28;20036;-43
2023/01/27 04:17:10;;;;;;;1.77;0.70;;;4.20;99.90;;;;;;5077323;28;20044;-43
2023/01/27 04:19:36;;;;;;;3.67;0.90;;;4.30;99.90;;;;;;5080008;28;20048;-42
2023/01/27 04:22:02;;;;;;;2.20;0.93;;;4.30;99.90;;;;;;5080633;28;20335;-41
2023/01/27 04:24:28;;;;;;;2.58;0.80;;;4.20;99.90;;;;;;5089429;28;20075;-43
2023/01/27 04:26:55;;;;;;;1.95;0.80;;;4.20;99.90;;;;;;5087812;28;20066;-41
2023/01/27 04:29:23;;;;;;;3.35;0.90;;;4.20;99.90;;;;;;5088327;28;20050;-41
2023/01/27 04:31:49;;;;;;;1.88;0.82;;;4.20;99.90;;;;;;5084422;28;20039;-44
2023/01/27 04:34:16;;;;;;;5.38;1.00;;;4.20;99.90;;;;;;5088313;28;20041;-41
2023/01/27 04:36:41;;;;;;;1.85;0.75;;;4.20;99.90;;;;;;5085363;28;20050;-44
2023/01/27 04:39:08;;;;;;;2.60;0.80;;;4.20;99.90;;;;;;5088191;28;20044;-41
2023/01/27 04:41:33;;;;;;;2.40;0.88;;;4.20;99.90;;;;;;5088622;28;20552;-44
2023/01/27 04:44:00;;;;;;;2.38;0.85;;;4.10;99.90;;;;;;5081378;28;20107;-41
2023/01/27 04:46:26;;;;;;;1.83;0.80;;;4.10;99.90;;;;;;5085349;28;20032;-42
2023/01/27 04:48:51;;;;;;;2.05;0.80;;;4.10;99.90;;;;;;5091494;28;20054;-42
2023/01/27 04:51:17;;;;;;;4.25;0.90;;;4.10;99.90;;;;;;5087487;28;20052;-40
2023/01/27 04:53:43;;;;;;;1.88;0.75;;;4.10;99.90;;;;;;5089351;28;20048;-41
2023/01/27 04:56:32;;;;;;;3.25;1.10;;;4.10;99.90;;;;;;5078625;28;20516;-42
2023/01/27 04:58:59;;;;;;;2.30;0.90;;;4.10;99.90;;;;;;5086823;28;20036;-39
2023/01/27 05:01:26;;;;;;;2.25;0.88;;;4.10;99.90;;;;;;5080577;28;20036;-39
2023/01/27 05:03:52;;;;;;;1.70;0.73;;;4.10;99.90;;;;;;5086229;28;20032;-44
2023/01/27 05:06:17;;;;;;;1.30;0.75;;;4.10;99.90;;;;;;5084134;28;20036;-39
2023/01/27 05:08:43;;;;;;;1.25;0.70;;;4.10;99.90;;;;;;5082540;28;20472;-41
2023/01/27 05:11:10;;;;;;;3.85;0.80;;;4.10;99.90;;;;;;5083066;28;20046;-41
2023/01/27 05:13:35;;;;;;;2.97;1.00;;;4.10;99.90;;;;;;5088936;28;20036;-42
2023/01/27 05:16:11;;;;;;;3.13;0.88;;;4.10;99.90;;;;;;5086990;28;20105;-42
2023/01/27 05:18:37;;;;;;;4.05;0.70;;;4.00;99.90;;;;;;5086204;28;20040;-42
2023/01/27 05:21:04;;;;;;;5.25;0.98;;;4.10;99.90;;;;;;5087740;28;20056;-39
2023/01/27 05:23:36;;;;;;;2.25;0.90;;;4.10;99.90;;;;;;5083989;28;20128;-40
2023/01/27 05:26:18;;;;;;;2.58;0.75;;;4.00;99.90;;;;;;5083052;28;20036;-40
2023/01/27 05:28:45;;;;;;;2.53;0.82;;;4.00;99.90;;;;;;5081652;28;20043;-42
2023/01/27 05:31:14;;;;;;;2.35;1.10;;;4.00;99.90;;;;;;5085766;28;20039;-41
2023/01/27 05:33:41;;;;;;;2.15;0.70;;;4.00;99.90;;;;;;5086511;28;20485;-42
2023/01/27 05:36:10;;;;;;;2.92;0.93;;;4.00;99.90;;;;;;5080092;28;20460;-41
2023/01/27 05:38:35;;;;;;;1.95;0.88;;;4.00;99.90;;;;;;5081506;28;20036;-41
2023/01/27 05:41:04;;;;;;;4.32;1.08;;;4.00;99.90;;;;;;5082158;28;20042;-40
2023/01/27 05:43:32;;;;;;;3.55;1.05;;;4.00;99.90;;;;;;5088357;28;20181;-41
2023/01/27 05:46:04;;;;;;;3.05;0.95;;;4.00;99.90;;;;;;5082867;28;20055;-43
2023/01/27 05:48:30;;;;;;;;;;;4.00;99.90;;;;;;5085210;28;20494;-41
2023/01/27 05:50:57;;;;;;;2.13;0.90;;;4.00;99.90;;;;;;5083765;28;20003;-43
2023/01/27 05:53:24;;;;;;;4.55;0.90;;;4.00;99.90;;;;;;5089978;28;20500;-39
2023/01/27 05:55:51;;;;;;;2.88;1.13;;;3.90;99.90;;;;;;5081350;28;20036;-44
2023/01/27 05:58:17;;;;;;;3.28;0.90;;;4.00;99.90;;;;;;5085669;28;20488;-40
2023/01/27 06:00:44;;;;;;;2.22;0.88;;;3.90;99.90;;;;;;5088384;28;20040;-40
2023/01/27 06:03:10;;;;;;;1.92;0.80;;;3.90;99.90;;;;;;5081993;28;20036;-42
2023/01/27 06:05:35;;;;;;;3.08;0.98;;;3.90;99.90;;;;;;5079136;28;20403;-39
2023/01/27 06:08:02;;;;;;;2.47;0.98;;;3.90;99.90;;;;;;5081520;28;20119;-42
2023/01/27 06:10:28;;;;;;;2.42;0.70;;;3.90;99.90;;;;;;5079600;28;20074;-40
2023/01/27 06:12:53;;;;;;;3.97;0.90;;;3.90;99.90;;;;;;5075113;28;20522;-41
2023/01/27 06:15:19;;;;;;;3.90;1.02;;;3.90;99.90;;;;;;5074718;28;20036;-42
2023/01/27 06:17:44;;;;;;;3.90;0.88;;;4.00;99.90;;;;;;5081722;28;20036;-42
2023/01/27 06:20:10;;;;;;;5.72;1.38;;;4.00;99.90;;;;;;5082810;28;20040;-40
2023/01/27 06:22:36;;;;;;;6.32;1.13;;;4.00;99.90;;;;;;5083875;28;20496;-40
2023/01/27 06:25:02;;;;;;;3.72;1.13;;;4.00;99.90;;;;;;5078628;28;20093;-39
2023/01/27 06:27:27;;;;;;;6.90;1.10;;;4.00;99.90;;;;;;5084728;28;20051;-40
2023/01/27 06:29:56;;;;;;;8.50;1.48;;;3.90;99.90;;;;;;5077938;28;20041;-39
2023/01/27 06:32:22;;;;;;;3.63;0.90;;;3.90;99.90;;;;;;5078646;28;20039;-43
2023/01/27 06:34:47;;;;;;;4.13;1.27;;;4.00;99.90;;;;;;5078256;28;20040;-39
2023/01/27 06:37:13;;;;;;;8.85;1.42;;;3.90;99.90;;;;;;5085962;28;20123;-40
2023/01/27 06:39:39;;;;;;;4.00;0.88;;;3.90;99.90;;;;;;5079327;28;20042;-41
2023/01/27 06:42:06;;;;;;;3.05;0.98;;;3.90;99.90;;;;;;5080709;28;20036;-43
2023/01/27 06:44:32;;;;;;;2.42;0.70;;;3.90;99.90;;;;;;5075620;28;20521;-47
2023/01/27 06:46:57;;;;;;;1.45;0.55;;;3.90;99.90;;;;;;5074866;28;20068;-39
2023/01/27 06:49:23;;;;;;;1.98;0.70;;;3.90;99.90;;;;;;5081873;28;20044;-43
2023/01/27 06:51:49;;;;;;;4.45;0.80;;;3.90;99.90;;;;;;5080656;28;20051;-39
2023/01/27 06:54:15;;;;;;;1.65;0.80;;;3.90;99.90;;;;;;5064552;28;20040;-48
2023/01/27 06:56:40;;;;;;;2.03;0.73;;;3.90;99.90;;;;;;5082571;28;20066;-41
2023/01/27 06:59:06;;;;;;;4.22;0.88;;;3.90;99.90;;;;;;5079612;28;20485;-45
2023/01/27 07:01:32;;;;;;;4.80;0.90;;;3.90;99.90;;;;;;5074806;28;20070;-41
2023/01/27 07:03:57;;;;;;;3.45;0.70;;;3.90;99.90;;;;;;5066045;28;20032;-41
2023/01/27 07:06:23;;;;;;;2.65;1.02;;;3.80;99.90;;;;;;5062329;28;20040;-43
2023/01/27 07:08:49;;;;;;;2.15;0.85;;;3.80;99.90;;;;;;5074999;28;20048;-41
2023/01/27 07:11:15;;;;;;;2.88;0.80;;;3.70;99.90;;;;;;5077594;28;20078;-43
2023/01/27 07:13:41;;;;;;;3.13;0.90;;;3.70;99.90;;;;;;5079404;28;20039;-41
2023/01/27 07:16:07;;;;;;;2.80;1.00;;;3.70;99.90;;;;;;5084777;28;20042;-44
2023/01/27 07:18:32;;;;;;;2.10;1.00;;;3.70;99.90;;;;;;5072447;28;20046;-45
2023/01/27 07:20:58;;;;;;;4.85;1.15;;;3.70;99.90;;;;;;5077838;28;20158;-45
2023/01/27 07:23:24;;;;;;;5.30;1.33;;;3.70;99.90;;;;;;5078278;28;20037;-43
2023/01/27 07:25:49;;;;;;;7.68;1.55;;;3.70;99.90;;;;;;5076296;28;20093;-41
2023/01/27 07:28:15;;;;;;;2.85;1.10;;;3.70;99.90;;;;;;5081567;28;20528;-43
2023/01/27 07:30:42;;;;;;;5.22;1.10;;;3.70;99.90;;;;;;5079155;28;20032;-46
2023/01/27 07:33:12;;;;;;;5.30;1.17;;;3.70;99.90;;;;;;5076878;28;20079;-38
2023/01/27 07:35:39;;;;;;;2.50;1.20;;;3.70;99.90;;;;;;5076362;28;20145;-46
2023/01/27 07:38:05;;;;;;;2.25;0.93;;;3.70;99.90;;;;;;5075011;28;20046;-42
2023/01/27 07:40:31;;;;;;;4.38;1.30;;;3.70;99.90;;;;;;5079226;28;21285;-42
2023/01/27 07:42:58;;;;;;;3.50;1.30;;;3.70;99.90;;;;;;5073164;28;20076;-46
2023/01/27 07:45:24;;;;;;;3.55;1.17;;;3.60;99.90;;;;;;5072487;28;20037;-53
2023/01/27 07:47:49;;;;;;;5.22;1.40;;;3.60;99.90;;;;;;5063552;28;20386;-44
2023/01/27 07:50:15;;;;;;;6.07;1.60;;;3.60;99.90;;;;;;5079608;28;20396;-42
2023/01/27 07:52:41;;;;;;;4.35;1.42;;;3.60;99.90;;;;;;5083910;28;20048;-41
2023/01/27 07:55:07;;;;;;;3.00;1.40;;;3.60;99.90;;;;;;5081736;28;20479;-42
2023/01/27 07:57:33;;;;;;;3.97;1.30;;;3.60;99.90;;;;;;5081841;28;20036;-43
2023/01/27 07:59:59;;;;;;;4.18;1.20;;;3.60;99.90;;;;;;5077671;28;20401;-41
2023/01/27 08:02:27;;;;;;;3.55;1.48;;;3.60;99.90;;;;;;5075403;28;20172;-45
2023/01/27 08:04:53;;;;;;;3.28;1.00;;;3.60;99.90;;;;;;5080914;28;20097;-42
2023/01/27 08:07:18;;;;;;;3.10;1.40;;;3.60;99.90;;;;;;5088061;28;20047;-57
2023/01/27 08:09:44;;;;;;;3.63;1.20;;;3.60;99.90;;;;;;5088936;28;20430;-41
2023/01/27 08:12:10;;;;;;;5.35;1.10;;;3.60;99.90;;;;;;5082092;28;20126;-44
2023/01/27 08:14:35;;;;;;;4.60;1.75;;;3.60;99.90;;;;;;5081503;28;20489;-45
2023/01/27 08:17:01;;;;;;;6.43;1.65;;;3.60;99.90;;;;;;5087634;28;20044;-43
2023/01/27 08:19:27;;;;;;;3.80;1.10;;;3.50;99.90;;;;;;5086816;28;20036;-45
2023/01/27 08:21:52;;;;;;;4.00;1.17;;;3.60;99.90;;;;;;5079542;28;20033;-46
2023/01/27 08:24:18;;;;;;;5.03;1.00;;;3.60;99.90;;;;;;5072116;28;20524;-43
2023/01/27 08:26:44;;;;;;;3.38;1.45;;;3.60;99.90;;;;;;5077180;28;20393;-43
2023/01/27 08:29:09;;;;;;;3.47;0.93;;;3.60;99.90;;;;;;5076710;28;20036;-39
2023/01/27 08:31:35;;;;;;;2.17;1.08;;;3.60;99.90;;;;;;5073675;28;20043;-40
2023/01/27 08:34:01;;;;;;;3.67;1.35;;;3.60;99.90;;;;;;5074763;28;20048;-43
2023/01/27 08:36:27;;;;;;;5.53;1.35;;;3.70;99.90;;;;;;5080587;28;20459;-44
2023/01/27 08:38:54;;;;;;;4.88;1.25;;;3.70;99.90;;;;;;5080820;28;20048;-47
2023/01/27 08:41:23;;;;;;;6.72;1.27;;;3.70;99.90;;;;;;5084885;28;20511;-43
2023/01/27 08:43:49;;;;;;;7.07;2.40;;;3.70;99.90;;;;;;5081541;28;20037;-41
2023/01/27 08:46:15;;;;;;;3.15;1.10;;;3.70;99.90;;;;;;5081516;28;20050;-42
2023/01/27 08:48:41;;;;;;;4.25;1.40;;;3.70;99.90;;;;;;5083115;28;20105;-45
2023/01/27 08:51:08;;;;;;;3.97;0.90;;;3.70;99.90;;;;;;5083240;28;20884;-44
2023/01/27 08:53:35;;;;;;;3.88;0.90;;;3.70;99.90;;;;;;5082360;28;20079;-45
2023/01/27 08:56:11;;;;;;;4.28;0.82;;;3.70;99.90;;;;;;5077859;28;20098;-43
2023/01/27 08:58:37;;;;;;;2.03;1.27;;;3.80;99.90;;;;;;5086929;28;20504;-45
2023/01/27 09:01:04;;;;;;;3.78;1.00;;;3.80;99.90;;;;;;5075049;28;20490;-51
2023/01/27 09:03:31;;;;;;;3.47;0.95;;;3.90;99.90;;;;;;5086383;28;20044;-50
2023/01/27 09:05:58;;;;;;;3.92;1.00;;;4.00;99.90;;;;;;5080405;28;20077;-44
2023/01/27 09:08:24;;;;;;;4.30;1.02;;;4.00;99.90;;;;;;5078073;28;20678;-44
2023/01/27 09:10:50;;;;;;;2.88;0.85;;;4.00;99.90;;;;;;5076743;28;20040;-38
2023/01/27 09:13:17;;;;;;;3.00;0.95;;;4.10;99.90;;;;;;5078320;28;20046;-37
2023/01/27 09:15:42;;;;;;;2.75;1.65;;;4.10;99.90;;;;;;5078770;28;20040;-37
2023/01/27 09:18:09;;;;;;;3.88;1.20;;;4.20;99.90;;;;;;5061681;28;20093;-37
2023/01/27 09:20:36;;;;;;;3.65;0.73;;;4.30;99.90;;;;;;5082847;28;20561;-39
2023/01/27 09:23:03;;;;;;;3.13;0.90;;;4.40;99.90;;;;;;5078082;28;20043;-40
2023/01/27 09:25:28;;;;;;;1.30;0.60;;;4.50;99.90;;;;;;5072858;28;20731;-39
2023/01/27 09:27:56;;;;;;;4.30;1.52;;;4.60;99.90;;;;;;5074961;28;20718;-38
2023/01/27 09:30:23;;;;;;;3.00;1.13;;;4.70;99.90;;;;;;5086651;28;20531;-39
2023/01/27 09:32:49;;;;;;;2.30;0.98;;;4.90;99.90;;;;;;5080665;28;20043;-37
2023/01/27 09:35:14;;;;;;;3.08;1.02;;;4.90;99.90;;;;;;5090689;28;20050;-37
2023/01/27 09:37:52;;;;;;;2.38;0.98;;;5.00;99.90;;;;;;5083315;28;20044;-49
2023/01/27 09:40:35;;;;;;;4.97;0.95;;;5.00;99.90;;;;;;5083751;28;20105;-46
2023/01/27 09:43:31;;;;;;;2.78;1.05;;;5.10;99.90;;;;;;5084987;28;20047;-38
2023/01/27 09:46:30;;;;;;;2.70;1.02;;;5.10;99.90;;;;;;5088261;28;20147;-37
2023/01/27 09:49:11;;;;;;;2.08;0.93;;;5.10;99.90;;;;;;5083414;28;20523;-37
2023/01/27 09:52:22;;;;;;;2.47;1.13;;;5.10;99.90;;;;;;5087879;28;20063;-47
2023/01/27 09:55:01;;;;;;;3.33;0.95;;;5.10;99.90;;;;;;5080137;28;20052;-37
2023/01/27 09:57:54;;;;;;;2.42;1.17;;;5.10;99.90;;;;;;5085298;28;20065;-38
2023/01/27 10:00:24;;;;;;;;;;;5.10;99.90;;;;;;5082219;28;20547;-37
2023/01/27 10:02:59;;;;;;;3.13;0.90;;;5.10;99.90;;;;;;5083765;28;19920;-37
2023/01/27 10:05:51;;;;;;;6.38;1.45;;;5.10;99.90;;;;;;5084910;28;20055;-38
2023/01/27 10:08:27;;;;;;;2.97;1.20;;;5.20;99.90;;;;;;5056208;28;20101;-37
2023/01/27 10:10:58;;;;;;;2.78;1.35;;;5.20;99.90;;;;;;5088039;28;20508;-38
2023/01/27 10:13:37;;;;;;;2.25;1.13;;;5.20;99.90;;;;;;5080578;28;20085;-38
2023/01/27 10:16:33;;;;;;;3.63;1.00;;;5.20;99.90;;;;;;5085450;28;20101;-39
2023/01/27 10:19:08;;;;;;;3.28;1.50;;;5.10;99.90;;;;;;5084547;28;20065;-38
2023/01/27 10:21:46;;;;;;;1.85;1.00;;;5.10;99.90;;;;;;5083829;28;20072;-37
2023/01/27 10:24:35;;;;;;;4.30;1.83;;;5.10;99.90;;;;;;5087929;28;20588;-39
2023/01/27 10:27:14;;;;;;;3.03;1.20;;;5.10;99.90;;;;;;5085787;28;20561;-37
2023/01/27 10:30:09;;;;;;;4.00;1.20;;;5.10;99.90;;;;;;5082971;28;20170;-40
2023/01/27 10:32:51;;;;;;;2.83;1.23;;;5.10;99.90;;;;;;5084483;28;20032;-42
2023/01/27 10:35:24;;;;;;;3.92;1.20;;;5.10;99.90;;;;;;5083654;28;20485;-39
2023/01/27 10:37:50;;;;;;;4.82;1.27;;;5.10;99.90;;;;;;5082431;28;20043;-38
2023/01/27 10:40:53;;;;;;;3.25;1.27;;;5.10;99.90;;;;;;5083400;28;20055;-37
2023/01/27 10:43:53;;;;;;;3.80;1.50;;;5.10;99.90;;;;;;5082972;28;20040;-38
2023/01/27 10:46:33;;;;;;;2.45;1.10;;;5.10;99.90;;;;;;5078536;28;20044;-38
2023/01/27 10:49:22;;;;;;;3.90;1.17;;;5.10;99.90;;;;;;5078096;28;20058;-36
2023/01/27 10:51:57;;;;;;;2.20;1.10;;;5.10;99.90;;;;;;5084049;28;20135;-37
2023/01/27 10:54:37;;;;;;;3.10;0.82;;;5.10;99.90;;;;;;5080479;28;20494;-37
2023/01/27 10:57:10;;;;;;;2.63;0.80;;;5.10;99.90;;;;;;5081929;28;20051;-37
2023/01/27 10:59:44;;;;;;;3.60;1.27;;;5.10;99.90;;;;;;5080106;28;20040;-37
2023/01/27 11:02:09;;;;;;;2.03;0.80;;;5.10;99.90;;;;;;5083963;28;20097;-37
2023/01/27 11:04:42;;;;;;;3.47;1.10;;;5.10;99.90;;;;;;5075703;28;20040;-37
2023/01/27 11:07:18;;;;;;;2.33;1.05;;;5.10;99.90;;;;;;5081466;28;20083;-38
2023/01/27 11:10:04;;;;;;;2.50;1.05;;;5.10;99.90;;;;;;5082417;28;20529;-38
2023/01/27 11:12:43;;;;;;;4.93;1.77;;;5.00;99.90;;;;;;5084707;28;20044;-37
2023/01/27 11:15:33;;;;;;;2.78;0.95;;;5.00;99.90;;;;;;5079268;28;20040;-37
2023/01/27 11:18:08;;;;;;;2.42;0.70;;;5.00;99.90;;;;;;5083592;28;20508;-39
2023/01/27 11:20:39;;;;;;;2.45;0.60;;;5.00;99.90;;;;;;5083925;28;20040;-36
2023/01/27 11:23:16;;;;;;;3.25;0.70;;;5.00;99.90;;;;;;5081029;28;20115;-35
2023/01/27 11:26:03;;;;;;;2.15;0.65;;;4.90;99.90;;;;;;5078900;28;20155;-35
2023/01/27 11:28:50;;;;;;;2.55;1.15;;;4.90;99.90;;;;;;5083796;28;20072;-39
2023/01/27 11:31:25;;;;;;;2.60;1.10;;;4.90;99.90;;;;;;5088579;28;20044;-41
2023/01/27 11:34:06;;;;;;;2.15;0.95;;;4.90;99.90;;;;;;5088874;28;20489;-38
2023/01/27 11:36:33;;;;;;;4.53;1.40;;;4.80;99.90;;;;;;5085506;28;20040;-41
2023/01/27 11:39:05;;;;;;;1.98;0.98;;;4.80;99.90;;;;;;5089599;28;20097;-39
2023/01/27 11:41:38;;;;;;;2.30;0.90;;;4.80;99.90;;;;;;5088500;28;20107;-42
2023/01/27 11:44:16;;;;;;;2.35;0.63;;;4.70;99.90;;;;;;5086193;28;20085;-42
2023/01/27 11:46:45;;;;;;;1.65;0.77;;;4.70;99.90;;;;;;5077078;28;20020;-39
2023/01/27 11:49:14;;;;;;;1.83;0.65;;;4.80;99.90;;;;;;5085762;28;20079;-41
2023/01/27 11:51:40;;;;;;;4.63;1.10;;;4.70;99.90;;;;;;5060843;28;20053;-41
2023/01/27 11:54:40;;;;;;;1.63;0.90;;;4.70;99.90;;;;;;5069468;28;20178;-40
2023/01/27 11:57:20;;;;;;;4.05;0.85;;;4.80;99.90;;;;;;5052279;28;20083;-44
2023/01/27 11:59:50;;;;;;;2.35;0.88;;;4.70;99.90;;;;;;5060848;28;20044;-41
2023/01/27 12:02:51;;;;;;;2.30;0.90;;;4.70;99.90;;;;;;5058601;28;20094;-40
2023/01/27 12:05:25;;;;;;;2.60;0.88;;;4.70;99.90;;;;;;5044704;28;20447;-43
2023/01/27 12:07:59;;;;;;;2.85;1.00;;;4.70;99.90;;;;;;5061401;28;20041;-43
2023/01/27 12:10:34;;;;;;;2.75;0.93;;;4.70;99.90;;;;;;5063667;28;20078;-45
2023/01/27 12:13:16;;;;;;;1.88;1.00;;;4.70;99.90;;;;;;5067459;28;20044;-39
2023/01/27 12:16:03;;;;;;;2.42;1.00;;;4.80;99.90;;;;;;5058927;28;20490;-36
2023/01/27 12:18:34;;;;;;;2.42;0.90;;;4.80;99.90;;;;;;5063276;28;20044;-39
2023/01/27 12:21:02;;;;;;;1.98;0.80;;;4.80;99.90;;;;;;5056100;28;20102;-38
2023/01/27 12:23:35;;;;;;;2.35;1.00;;;4.80;99.90;;;;;;5063873;28;20489;-38
2023/01/27 12:26:09;;;;;;;1.95;1.00;;;4.90;99.90;;;;;;5068957;28;20045;-37
2023/01/27 12:28:41;;;;;;;2.58;0.82;;;4.90;99.90;;;;;;5061618;28;20436;-39
2023/01/27 12:31:23;;;;;;;3.37;1.77;;;4.90;99.90;;;;;;5056677;28;20074;-39
2023/01/27 12:34:05;;;;;;;3.40;1.02;;;4.90;99.90;;;;;;5058448;28;20062;-39
2023/01/27 12:36:40;;;;;;;4.00;0.95;;;4.90;99.90;;;;;;5060408;28;20036;-40
2023/01/27 12:39:41;;;;;;;2.15;1.00;;;4.90;99.90;;;;;;5058725;28;20604;-39
2023/01/27 12:42:34;;;;;;;2.13;1.02;;;4.90;99.90;;;;;;5063077;28;20037;-39
2023/01/27 12:45:00;;;;;;;;;;;4.90;99.90;;;;;;5056698;28;20045;-37
2023/01/27 12:47:28;;;;;;;1.77;0.80;;;4.90;99.90;;;;;;5060880;28;20376;-38
2023/01/27 12:50:22;;;;;;;2.78;1.00;;;4.90;99.90;;;;;;5062645;28;20040;-37
2023/01/27 12:53:12;;;;;;;3.85;0.95;;;4.90;99.90;;;;;;5081158;28;20516;-38
2023/01/27 12:55:53;;;;;;;2.38;0.73;;;4.80;99.90;;;;;;5071795;28;20085;-38
2023/01/27 12:58:54;;;;;;;2.33;0.70;;;4.80;99.90;;;;;;5083834;28;20348;-38
2023/01/27 13:01:24;;;;;;;1.92;1.00;;;4.80;99.90;;;;;;5081889;28;20044;-39
2023/01/27 13:04:02;;;;;;;1.50;0.60;;;4.80;99.90;;;;;;5077302;28;20058;-38
2023/01/27 13:06:41;;;;;;;1.77;0.70;;;4.80;99.90;;;;;;5081708;28;20220;-38
2023/01/27 13:09:25;;;;;;;2.20;0.93;;;4.80;99.90;;;;;;5075640;28;20097;-37
2023/01/27 13:11:52;;;;;;;1.83;0.70;;;4.80;99.90;;;;;;5077744;28;20517;-40
2023/01/27 13:14:18;;;;;;;2.15;0.85;;;4.80;99.90;;;;;;5075194;28;20122;-38
2023/01/27 13:16:57;;;;;;;1.60;0.70;;;4.80;99.90;;;;;;5054314;28;20119;-37
2023/01/27 13:19:39;;;;;;;2.25;0.70;;;4.80;99.90;;;;;;5078802;28;20512;-38
2023/01/27 13:22:06;;;;;;;1.13;0.60;;;4.70;99.90;;;;;;5074420;28;20032;-43
2023/01/27 13:24:40;;;;;;;1.98;0.88;;;4.70;99.90;;;;;;5084987;28;20043;-47
2023/01/27 13:27:17;;;;;;;2.08;0.80;;;4.70;99.90;;;;;;5087062;28;20092;-41
2023/01/27 13:29:53;;;;;;;1.67;0.70;;;4.70;99.90;;;;;;5085763;28;20042;-38
2023/01/27 13:32:26;;;;;;;2.78;0.70;;;4.70;99.90;;;;;;5084331;28;20404;-46
2023/01/27 13:35:28;;;;;;;1.98;0.75;;;4.70;99.90;;;;;;5082466;28;20044;-43
2023/01/27 13:38:21;;;;;;;2.60;0.90;;;4.70;99.90;;;;;;5072756;28;20048;-42
2023/01/27 13:40:48;;;;;;;1.92;0.70;;;4.70;99.90;;;;;;5064982;28;20151;-39
2023/01/27 13:43:30;;;;;;;2.90;0.80;;;4.70;99.90;;;;;;5080932;28;20037;-47
2023/01/27 13:46:14;;;;;;;2.00;0.75;;;4.80;99.90;;;;;;5085218;28;20501;-42
2023/01/27 13:48:47;;;;;;;2.10;0.82;;;4.70;99.90;;;;;;5077180;28;20047;-42
2023/01/27 13:51:14;;;;;;;1.45;0.73;;;4.70;99.90;;;;;;5083818;28;20091;-43